createdAt,value
2022-11-25T00:00:28.867Z,6.60
2022-11-25T00:04:50.790Z,7.35
2022-11-25T00:09:13.347Z,7.90
2022-11-25T00:13:42.973Z,8.65
2022-11-25T00:18:06.129Z,8.02
2022-11-25T00:22:28.295Z,8.77
2022-11-25T00:26:50.665Z,8.35
2022-11-25T00:31:22.862Z,9.35
2022-11-25T00:35:45.886Z,9.57
2022-11-25T00:40:10.259Z,9.40
2022-11-25T00:44:36.243Z,8.65
2022-11-25T00:48:58.574Z,9.23
2022-11-25T00:53:21.394Z,9.05
2022-11-25T00:57:43.198Z,9.27
2022-11-25T01:02:07.258Z,10.30
2022-11-25T01:06:29.533Z,10.75
2022-11-25T01:11:10.757Z,9.57
2022-11-25T01:15:38.480Z,10.13
2022-11-25T01:20:03.825Z,10.00
2022-11-25T01:24:27.142Z,9.45
2022-11-25T01:28:54.054Z,10.75
2022-11-25T01:33:15.836Z,10.80
2022-11-25T01:37:40.596Z,10.07
2022-11-25T01:42:04.202Z,9.73
2022-11-25T01:46:30.639Z,10.18
2022-11-25T01:50:55.468Z,9.05
2022-11-25T01:55:30.878Z,9.43
2022-11-25T01:59:57.458Z,9.07
2022-11-25T02:04:20.462Z,9.50
2022-11-25T02:08:48.325Z,9.15
2022-11-25T02:13:11.482Z,9.82
2022-11-25T02:17:34.448Z,10.23
2022-11-25T02:22:03.865Z,9.40
2022-11-25T02:26:26.187Z,9.55
2022-11-25T02:30:49.765Z,9.95
2022-11-25T02:35:33.767Z,9.35
2022-11-25T02:39:59.180Z,7.82
2022-11-25T02:44:21.340Z,7.78
2022-11-25T02:49:07.851Z,7.20
2022-11-25T02:53:25.913Z,8.05
2022-11-25T02:57:48.272Z,6.97
2022-11-25T03:02:10.346Z,7.32
2022-11-25T03:06:33.324Z,7.80
2022-11-25T03:10:55.372Z,8.00
2022-11-25T03:15:17.538Z,7.88
2022-11-25T03:19:40.055Z,7.90
2022-11-25T03:24:02.167Z,8.82
2022-11-25T03:28:24.410Z,8.25
2022-11-25T03:32:47.401Z,8.60
2022-11-25T03:37:10.379Z,9.32
2022-11-25T03:41:33.431Z,8.52
2022-11-25T03:45:55.605Z,9.27
2022-11-25T03:50:17.694Z,9.02
2022-11-25T03:54:41.563Z,9.70
2022-11-25T03:59:16.867Z,9.07
2022-11-25T04:03:38.611Z,8.55
2022-11-25T04:08:00.610Z,8.65
2022-11-25T04:12:41.643Z,9.40
2022-11-25T04:17:04.549Z,9.98
2022-11-25T04:21:26.523Z,8.35
2022-11-25T04:25:50.909Z,8.63
2022-11-25T04:30:20.311Z,7.93
2022-11-25T04:34:42.932Z,9.23
2022-11-25T04:39:05.011Z,9.45
2022-11-25T04:43:28.528Z,8.70
2022-11-25T04:48:01.751Z,9.48
2022-11-25T04:52:24.906Z,9.32
2022-11-25T04:56:47.955Z,9.20
2022-11-25T05:01:12.015Z,8.90
2022-11-25T05:05:39.600Z,8.90
2022-11-25T05:10:03.269Z,9.93
2022-11-25T05:14:36.186Z,10.43
2022-11-25T05:18:58.125Z,10.00
2022-11-25T05:23:21.583Z,9.57
2022-11-25T05:27:44.573Z,9.93
2022-11-25T05:32:09.052Z,11.32
2022-11-25T05:36:32.390Z,13.45
2022-11-25T05:41:02.815Z,13.20
2022-11-25T05:45:25.395Z,16.85
2022-11-25T05:49:47.299Z,11.32
2022-11-25T05:54:09.362Z,11.52
2022-11-25T05:58:33.773Z,9.63
2022-11-25T06:02:58.729Z,10.55
2022-11-25T06:07:21.650Z,10.93
2022-11-25T06:11:44.952Z,10.18
2022-11-25T06:16:10.321Z,10.77
2022-11-25T06:20:32.793Z,9.13
2022-11-25T06:25:01.933Z,9.02
2022-11-25T06:29:26.753Z,8.60
2022-11-25T06:33:52.492Z,9.77
2022-11-25T06:38:15.375Z,9.40
2022-11-25T06:42:39.526Z,10.20
2022-11-25T06:47:01.595Z,14.70
2022-11-25T06:51:24.626Z,14.18
2022-11-25T06:55:48.004Z,11.98
2022-11-25T07:00:11.444Z,12.45
2022-11-25T07:04:37.303Z,11.73
2022-11-25T07:09:01.136Z,11.50
2022-11-25T07:13:23.030Z,10.68
2022-11-25T07:17:45.200Z,12.02
2022-11-25T07:22:07.032Z,10.13
2022-11-25T07:26:32.333Z,11.05
2022-11-25T07:31:22.865Z,9.70
2022-11-25T07:35:36.136Z,8.90
2022-11-25T07:39:58.039Z,7.70
2022-11-25T07:44:20.777Z,6.10
2022-11-25T07:48:49.712Z,4.30
2022-11-25T07:53:11.375Z,4.07
2022-11-25T07:57:33.462Z,4.30
2022-11-25T08:01:56.609Z,4.00
2022-11-25T08:06:22.184Z,4.13
2022-11-25T08:10:43.977Z,4.35
2022-11-25T08:15:06.819Z,4.57
2022-11-25T08:19:31.472Z,4.57
2022-11-25T08:23:54.960Z,3.72
2022-11-25T08:28:16.701Z,3.90
2022-11-25T08:32:39.647Z,4.57
2022-11-25T08:37:01.856Z,3.50
2022-11-25T08:41:33.001Z,4.28
2022-11-25T08:45:54.632Z,4.00
2022-11-25T08:50:16.882Z,4.25
2022-11-25T08:54:39.792Z,4.80
2022-11-25T08:59:02.037Z,4.05
2022-11-25T09:03:24.186Z,4.07
2022-11-25T09:07:46.868Z,4.60
2022-11-25T09:12:08.714Z,3.92
2022-11-25T09:16:31.040Z,3.70
2022-11-25T09:20:54.105Z,3.35
2022-11-25T09:25:16.138Z,3.70
2022-11-25T09:29:38.936Z,4.03
2022-11-25T09:34:01.028Z,3.42
2022-11-25T09:38:23.153Z,3.85
2022-11-25T09:43:44.031Z,3.30
2022-11-25T09:48:52.676Z,4.20
2022-11-25T09:53:34.474Z,3.17
2022-11-25T09:58:39.277Z,2.80
2022-11-25T10:03:35.929Z,3.30
2022-11-25T10:08:11.467Z,2.20
2022-11-25T10:12:42.480Z,2.40
2022-11-25T10:17:10.093Z,2.13
2022-11-25T10:21:32.131Z,1.90
2022-11-25T10:26:01.345Z,1.70
2022-11-25T10:31:06.339Z,1.90
2022-11-25T10:35:38.584Z,2.08
2022-11-25T10:40:00.180Z,2.10
2022-11-25T10:44:30.848Z,2.05
2022-11-25T10:49:10.098Z,2.05
2022-11-25T10:53:32.776Z,2.53
2022-11-25T10:57:55.996Z,2.42
2022-11-25T11:02:19.327Z,2.60
2022-11-25T11:06:45.783Z,1.98
2022-11-25T11:11:20.840Z,2.13
2022-11-25T11:15:42.930Z,1.85
2022-11-25T11:20:23.355Z,1.80
2022-11-25T11:24:44.970Z,2.47
2022-11-25T11:29:16.191Z,2.13
2022-11-25T11:34:00.032Z,2.20
2022-11-25T11:38:32.098Z,1.90
2022-11-25T11:43:05.865Z,1.60
2022-11-25T11:47:54.081Z,1.90
2022-11-25T11:52:51.635Z,2.08
2022-11-25T11:57:49.178Z,1.92
2022-11-25T12:02:40.809Z,1.88
2022-11-25T12:07:24.315Z,2.58
2022-11-25T12:11:51.971Z,2.03
2022-11-25T12:16:27.653Z,2.35
2022-11-25T12:21:08.785Z,2.47
2022-11-25T12:25:40.332Z,2.00
2022-11-25T12:30:08.048Z,2.50
2022-11-25T12:34:54.836Z,2.40
2022-11-25T12:39:37.223Z,2.20
2022-11-25T12:44:50.663Z,2.30
2022-11-25T12:49:28.278Z,2.72
2022-11-25T12:54:41.296Z,2.95
2022-11-25T12:59:32.428Z,2.92
2022-11-25T13:04:28.414Z,2.60
2022-11-25T13:09:28.289Z,2.47
2022-11-25T13:14:23.985Z,2.60
2022-11-25T13:18:46.528Z,2.55
2022-11-25T13:23:13.268Z,2.60
2022-11-25T13:27:40.838Z,3.03
2022-11-25T13:32:26.528Z,3.13
2022-11-25T13:36:50.439Z,2.40
2022-11-25T13:41:12.312Z,2.65
2022-11-25T13:45:39.270Z,2.80
2022-11-25T13:50:41.663Z,2.50
2022-11-25T13:55:18.811Z,2.97
2022-11-25T13:59:51.153Z,2.83
2022-11-25T14:04:19.519Z,2.75
2022-11-25T14:09:04.675Z,3.25
2022-11-25T14:14:03.676Z,3.00
2022-11-25T14:19:11.969Z,3.95
2022-11-25T14:23:39.590Z,3.28
2022-11-25T14:28:12.592Z,3.63
2022-11-25T14:32:39.988Z,3.13
2022-11-25T14:37:22.723Z,2.67
2022-11-25T14:41:59.320Z,3.80
2022-11-25T14:46:23.496Z,3.67
2022-11-25T14:51:02.633Z,3.35
2022-11-25T14:55:31.991Z,4.60
2022-11-25T14:59:57.978Z,5.25
2022-11-25T15:04:25.410Z,3.85
2022-11-25T15:08:57.508Z,4.10
2022-11-25T15:13:44.560Z,5.85
2022-11-25T15:18:19.408Z,4.32
2022-11-25T15:22:49.300Z,6.15
2022-11-25T15:27:28.109Z,3.80
2022-11-25T15:31:53.456Z,4.20
2022-11-25T15:36:15.550Z,3.80
2022-11-25T15:40:43.172Z,4.03
2022-11-25T15:45:19.933Z,4.13
2022-11-25T15:50:25.419Z,4.25
2022-11-25T15:55:37.727Z,51.90
2022-11-25T16:00:00.598Z,11.10
2022-11-25T16:04:24.350Z,4.97
2022-11-25T16:09:01.512Z,4.13
2022-11-25T16:13:30.764Z,7.22
2022-11-25T16:18:02.825Z,3.78
2022-11-25T16:22:37.716Z,4.65
2022-11-25T16:27:09.817Z,4.15
2022-11-25T16:31:31.595Z,4.25
2022-11-25T16:35:53.542Z,4.28
2022-11-25T16:40:17.548Z,4.40
2022-11-25T16:44:39.938Z,4.53
2022-11-25T16:49:13.490Z,4.80
2022-11-25T16:53:35.038Z,4.57
2022-11-25T16:57:57.076Z,5.50
2022-11-25T17:02:22.302Z,5.30
2022-11-25T17:06:50.532Z,5.68
2022-11-25T17:11:41.868Z,5.72
2022-11-25T17:16:08.497Z,6.40
2022-11-25T17:20:30.402Z,7.90
2022-11-25T17:24:56.586Z,7.88
2022-11-25T17:29:24.462Z,7.88
2022-11-25T17:33:48.058Z,8.60
2022-11-25T17:38:21.933Z,8.23
2022-11-25T17:42:48.399Z,7.55
2022-11-25T17:47:14.732Z,8.32
2022-11-25T17:51:36.350Z,9.07
2022-11-25T17:55:58.314Z,10.18
2022-11-25T18:00:22.511Z,8.70
2022-11-25T18:04:44.374Z,10.13
2022-11-25T18:09:06.538Z,10.30
2022-11-25T18:13:31.263Z,10.10
2022-11-25T18:18:16.201Z,10.07
2022-11-25T18:22:37.921Z,9.52
2022-11-25T18:27:00.158Z,10.13
2022-11-25T18:31:22.631Z,10.27
2022-11-25T18:35:45.731Z,9.45
2022-11-25T18:40:09.163Z,9.80
2022-11-25T18:44:31.003Z,9.75
2022-11-25T18:48:54.703Z,10.55
2022-11-25T18:53:17.165Z,10.07
2022-11-25T18:57:41.317Z,10.80
2022-11-25T19:02:03.200Z,10.68
2022-11-25T19:06:28.112Z,11.75
2022-11-25T19:10:50.901Z,11.18
2022-11-25T19:15:17.014Z,11.32
2022-11-25T19:19:41.518Z,12.93
2022-11-25T19:24:13.227Z,10.73
2022-11-25T19:28:35.459Z,12.90
2022-11-25T19:33:00.115Z,11.98
2022-11-25T19:37:23.234Z,12.05
2022-11-25T19:41:45.646Z,12.25
2022-11-25T19:46:29.420Z,14.10
2022-11-25T19:50:59.885Z,13.18
2022-11-25T19:55:31.452Z,14.57
2022-11-25T19:59:53.162Z,15.00
2022-11-25T20:04:22.260Z,14.57
2022-11-25T20:08:44.497Z,14.07
2022-11-25T20:13:07.208Z,15.18
2022-11-25T20:17:34.714Z,14.25
2022-11-25T20:21:57.132Z,14.02
2022-11-25T20:26:43.111Z,13.93
2022-11-25T20:31:05.347Z,13.23
2022-11-25T20:35:28.703Z,13.05
2022-11-25T20:40:00.443Z,13.25
2022-11-25T20:44:23.019Z,12.07
2022-11-25T20:48:45.916Z,13.85
2022-11-25T20:53:18.892Z,13.73
2022-11-25T20:57:40.673Z,14.05
2022-11-25T21:02:02.920Z,12.73
2022-11-25T21:06:37.837Z,13.20
2022-11-25T21:11:04.324Z,11.85
2022-11-25T21:15:30.411Z,13.45
2022-11-25T21:19:52.231Z,12.45
2022-11-25T21:24:36.916Z,12.90
2022-11-25T21:28:59.065Z,13.13
2022-11-25T21:33:21.037Z,12.95
2022-11-25T21:37:44.647Z,12.77
2022-11-25T21:42:17.704Z,13.05
2022-11-25T21:46:39.711Z,11.95
2022-11-25T21:51:01.583Z,12.65
2022-11-25T21:55:23.947Z,12.80
2022-11-25T21:59:47.147Z,12.13
2022-11-25T22:04:19.673Z,11.88
2022-11-25T22:08:41.367Z,10.85
2022-11-25T22:13:04.551Z,10.73
2022-11-25T22:17:26.771Z,10.73
2022-11-25T22:21:48.631Z,11.48
2022-11-25T22:26:38.220Z,8.88
2022-11-25T22:31:08.527Z,9.38
2022-11-25T22:35:30.495Z,8.80
2022-11-25T22:39:52.751Z,8.85
2022-11-25T22:44:42.854Z,8.70
2022-11-25T22:49:04.879Z,8.85
2022-11-25T22:53:27.023Z,8.68
2022-11-25T22:57:51.065Z,10.05
2022-11-25T23:02:24.219Z,8.43
2022-11-25T23:06:48.105Z,9.52
2022-11-25T23:11:19.523Z,9.65
2022-11-25T23:15:50.695Z,10.57
2022-11-25T23:20:39.903Z,10.93
2022-11-25T23:25:02.127Z,10.30
2022-11-25T23:29:24.313Z,11.32
2022-11-25T23:33:50.964Z,9.23
2022-11-25T23:38:21.741Z,10.85
2022-11-25T23:42:43.397Z,9.75
2022-11-25T23:47:06.541Z,10.40
2022-11-25T23:51:29.847Z,10.98
2022-11-25T23:55:54.197Z,10.95
